Terminal Aerodrome Forecast
Issued by NWS

Home | Current Version | Previous Version | Text Only | Print | Product List | Glossary On
Versions: 1 2 3 4 5 6 7 8 9 10 11 12 13 14 15 16 17
584
FTUS46 KLOX 222344
TAFOXR
TAF
KOXR 222344Z 2300/2324 28010KT P6SM SKC
     FM230200 VRB03KT P6SM SKC
     FM231000 07006KT P6SM SKC
     FM231400 07006KT P6SM SKC WS010/07030KT
     FM231900 06015G25KT P6SM SKC=

USA.gov is the U.S. government's official web portal to all federal, state and local government web resources and services.